createdAt,value
2023-04-16T00:00:07.952Z,100702.34
2023-04-16T00:02:43.111Z,100704.95
2023-04-16T00:05:11.426Z,100704.02
2023-04-16T00:07:39.721Z,100706.95
2023-04-16T00:10:08.504Z,100710.11
2023-04-16T00:12:36.655Z,100712.55
2023-04-16T00:15:05.547Z,100712.54
2023-04-16T00:17:33.872Z,100718.75
2023-04-16T00:20:02.439Z,100718.99
2023-04-16T00:22:31.008Z,100719.30
2023-04-16T00:24:59.035Z,100715.45
2023-04-16T00:27:27.115Z,100715.39
2023-04-16T00:29:55.168Z,100715.52
2023-04-16T00:32:23.192Z,100716.61
2023-04-16T00:34:51.703Z,100718.09
2023-04-16T00:37:20.366Z,100718.31
2023-04-16T00:39:48.390Z,100713.91
2023-04-16T00:42:16.488Z,100720.79
2023-04-16T00:44:44.750Z,100716.36
2023-04-16T00:47:14.341Z,100719.98
2023-04-16T00:49:42.508Z,100720.71
2023-04-16T00:52:11.704Z,100722.50
2023-04-16T00:54:39.834Z,100725.02
2023-04-16T00:57:08.426Z,100725.34
2023-04-16T00:59:37.072Z,100726.31
2023-04-16T01:02:05.212Z,100728.76
2023-04-16T01:04:35.178Z,100729.23
2023-04-16T01:07:03.378Z,100727.41
2023-04-16T01:09:31.538Z,100733.09
2023-04-16T01:11:59.691Z,100730.84
2023-04-16T01:14:28.163Z,100727.84
2023-04-16T01:16:56.368Z,100725.70
2023-04-16T01:19:24.476Z,100727.38
2023-04-16T01:21:53.208Z,100728.61
2023-04-16T01:24:21.358Z,100730.11
2023-04-16T01:26:49.374Z,100731.88
2023-04-16T01:29:17.383Z,100732.49
2023-04-16T01:31:46.757Z,100729.95
2023-04-16T01:34:27.205Z,100733.81
2023-04-16T01:36:55.689Z,100732.65
2023-04-16T01:39:23.708Z,100730.89
2023-04-16T01:41:51.708Z,100730.80
2023-04-16T01:44:21.728Z,100733.05
2023-04-16T01:46:50.054Z,100729.73
2023-04-16T01:49:18.257Z,100731.36
2023-04-16T01:51:46.491Z,100732.14
2023-04-16T01:54:14.490Z,100732.33
2023-04-16T01:56:43.238Z,100732.27
2023-04-16T01:59:12.403Z,100732.05
2023-04-16T02:01:42.567Z,100734.02
2023-04-16T02:04:10.815Z,100732.63
2023-04-16T02:06:39.456Z,100731.54
2023-04-16T02:09:08.034Z,100724.84
2023-04-16T02:11:38.757Z,100729.55
2023-04-16T02:14:08.766Z,100729.30
2023-04-16T02:16:38.102Z,100732.73
2023-04-16T02:19:14.859Z,100734.59
2023-04-16T02:21:43.731Z,100737.10
2023-04-16T02:24:12.085Z,100731.28
2023-04-16T02:26:40.467Z,100734.45
2023-04-16T02:29:11.950Z,100733.06
2023-04-16T02:31:44.616Z,100729.36
2023-04-16T02:34:13.739Z,100733.39
2023-04-16T02:36:42.041Z,100730.48
2023-04-16T02:39:10.679Z,100734.14
2023-04-16T02:41:38.984Z,100731.55
2023-04-16T02:44:07.393Z,100732.14
2023-04-16T02:46:35.903Z,100738.77
2023-04-16T02:49:03.876Z,100739.39
2023-04-16T02:51:33.328Z,100741.83
2023-04-16T02:54:03.046Z,100744.39
2023-04-16T02:56:31.890Z,100747.80
2023-04-16T02:59:00.018Z,100749.27
2023-04-16T03:01:29.068Z,100758.69
2023-04-16T03:03:57.561Z,100753.94
2023-04-16T03:06:28.230Z,100757.29
2023-04-16T03:08:56.377Z,100756.73
2023-04-16T03:11:25.049Z,100754.70
2023-04-16T03:13:53.882Z,100763.57
2023-04-16T03:16:22.418Z,100764.02
2023-04-16T03:18:50.676Z,100760.85
2023-04-16T03:21:18.883Z,100762.44
2023-04-16T03:23:47.721Z,100768.82
2023-04-16T03:26:15.801Z,100766.91
2023-04-16T03:28:48.653Z,100769.63
2023-04-16T03:31:17.311Z,100768.52
2023-04-16T03:33:46.024Z,100759.23
2023-04-16T03:36:14.207Z,100769.71
2023-04-16T03:38:42.303Z,100769.99
2023-04-16T03:41:11.057Z,100772.83
2023-04-16T03:43:39.077Z,100776.94
2023-04-16T03:46:07.879Z,100773.04
2023-04-16T03:48:36.808Z,100774.20
2023-04-16T03:51:05.477Z,100774.48
2023-04-16T03:53:34.579Z,100777.35
2023-04-16T03:56:02.799Z,100778.83
2023-04-16T03:58:31.384Z,100783.14
2023-04-16T04:00:59.546Z,100791.17
2023-04-16T04:03:28.367Z,100784.77
2023-04-16T04:05:56.861Z,100786.98
2023-04-16T04:08:27.978Z,100791.06
2023-04-16T04:10:56.114Z,100790.92
2023-04-16T04:13:24.793Z,100790.73
2023-04-16T04:15:53.255Z,100793.06
2023-04-16T04:18:22.270Z,100793.09
2023-04-16T04:20:50.330Z,100792.21
2023-04-16T04:23:21.210Z,100785.05
2023-04-16T04:25:49.513Z,100784.45
2023-04-16T04:28:19.439Z,100784.84
2023-04-16T04:30:47.550Z,100784.15
2023-04-16T04:33:17.480Z,100789.26
2023-04-16T04:35:45.455Z,100788.80
2023-04-16T04:38:16.010Z,100788.86
2023-04-16T04:40:44.573Z,100793.90
2023-04-16T04:43:12.657Z,100795.27
2023-04-16T04:45:40.870Z,100795.78
2023-04-16T04:48:09.077Z,100797.92
2023-04-16T04:50:37.163Z,100795.49
2023-04-16T04:53:10.120Z,100795.05
2023-04-16T04:55:39.310Z,100803.27
2023-04-16T04:58:07.517Z,100800.70
2023-04-16T05:00:36.586Z,100800.92
2023-04-16T05:03:11.610Z,100804.62
2023-04-16T05:05:41.508Z,100805.77
2023-04-16T05:08:10.038Z,100810.55
2023-04-16T05:10:38.555Z,100815.63
2023-04-16T05:13:06.757Z,100811.81
2023-04-16T05:15:34.847Z,100817.81
2023-04-16T05:18:03.189Z,100823.80
2023-04-16T05:20:31.405Z,100823.00
2023-04-16T05:22:59.394Z,100822.33
2023-04-16T05:25:27.540Z,100827.33
2023-04-16T05:27:55.576Z,100824.52
2023-04-16T05:30:23.658Z,100820.20
2023-04-16T05:32:51.839Z,100822.65
2023-04-16T05:35:20.010Z,100822.47
2023-04-16T05:37:48.143Z,100823.23
2023-04-16T05:40:16.275Z,100829.48
2023-04-16T05:42:44.637Z,100825.09
2023-04-16T05:45:13.175Z,100828.02
2023-04-16T05:47:41.291Z,100829.92
2023-04-16T05:50:10.168Z,100828.27
2023-04-16T05:52:39.338Z,100827.64
2023-04-16T05:55:08.056Z,100827.86
2023-04-16T05:57:36.252Z,100832.73
2023-04-16T06:00:05.132Z,100831.31
2023-04-16T06:02:40.363Z,100834.45
2023-04-16T06:05:08.593Z,100839.15
2023-04-16T06:07:36.776Z,100844.16
2023-04-16T06:10:05.398Z,100844.03
2023-04-16T06:12:33.479Z,100849.02
2023-04-16T06:15:02.071Z,100844.52
2023-04-16T06:17:30.413Z,100846.52
2023-04-16T06:19:58.380Z,100847.32
2023-04-16T06:22:26.553Z,100852.48
2023-04-16T06:24:54.912Z,100853.55
2023-04-16T06:27:23.196Z,100852.56
2023-04-16T06:29:51.412Z,100848.32
2023-04-16T06:32:19.427Z,100848.15
2023-04-16T06:34:47.964Z,100852.94
2023-04-16T06:37:16.445Z,100853.52
2023-04-16T06:39:44.584Z,100857.77
2023-04-16T06:42:12.820Z,100869.14
2023-04-16T06:44:40.963Z,100868.46
2023-04-16T06:47:09.044Z,100865.52
2023-04-16T06:49:37.514Z,100870.65
2023-04-16T06:52:06.242Z,100863.02
2023-04-16T06:54:34.593Z,100865.92
2023-04-16T06:57:02.832Z,100871.98
2023-04-16T06:59:31.645Z,100871.27
2023-04-16T07:01:59.912Z,100875.23
2023-04-16T07:04:28.645Z,100867.76
2023-04-16T07:06:57.028Z,100868.34
2023-04-16T07:09:26.902Z,100870.40
2023-04-16T07:11:55.370Z,100872.23
2023-04-16T07:14:23.408Z,100870.13
2023-04-16T07:16:51.922Z,100868.32
2023-04-16T07:19:20.208Z,100872.28
2023-04-16T07:21:48.362Z,100871.34
2023-04-16T07:24:16.695Z,100875.52
2023-04-16T07:26:44.829Z,100873.45
2023-04-16T07:29:12.879Z,100875.04
2023-04-16T07:31:41.401Z,100883.80
2023-04-16T07:34:09.608Z,100882.46
2023-04-16T07:36:37.670Z,100879.55
2023-04-16T07:39:08.869Z,100882.12
2023-04-16T07:41:37.345Z,100885.02
2023-04-16T07:44:05.952Z,100886.89
2023-04-16T07:46:43.577Z,100889.27
2023-04-16T07:49:15.493Z,100888.50
2023-04-16T07:51:43.798Z,100885.95
2023-04-16T07:54:11.966Z,100888.14
2023-04-16T07:56:40.930Z,100892.30
2023-04-16T07:59:21.879Z,100890.30
2023-04-16T08:01:52.701Z,100891.23
2023-04-16T08:04:25.512Z,100889.57
2023-04-16T08:06:54.696Z,100898.77
2023-04-16T08:09:23.625Z,100897.90
2023-04-16T08:11:51.844Z,100893.58
2023-04-16T08:14:19.805Z,100893.50
2023-04-16T08:16:47.944Z,100889.48
2023-04-16T08:19:16.140Z,100892.88
2023-04-16T08:21:44.459Z,100897.14
2023-04-16T08:24:12.521Z,100900.91
2023-04-16T08:26:40.732Z,100897.66
2023-04-16T08:29:09.068Z,100889.98
2023-04-16T08:31:37.587Z,100883.07
2023-04-16T08:34:05.776Z,100875.98
2023-04-16T08:36:33.885Z,100874.86
2023-04-16T08:39:02.021Z,100874.34
2023-04-16T08:41:33.456Z,100874.57
2023-04-16T08:44:01.669Z,100875.99
2023-04-16T08:46:30.198Z,100871.82
2023-04-16T08:48:59.211Z,100863.98
2023-04-16T08:51:30.014Z,100861.80
2023-04-16T08:54:00.408Z,100865.77
2023-04-16T08:56:29.213Z,100865.78
2023-04-16T08:58:58.561Z,100870.71
2023-04-16T09:01:29.657Z,100882.30
2023-04-16T09:03:57.898Z,100878.81
2023-04-16T09:06:31.589Z,100881.63
2023-04-16T09:08:59.793Z,100887.44
2023-04-16T09:11:27.788Z,100889.25
2023-04-16T09:13:56.106Z,100893.58
2023-04-16T09:16:25.233Z,100887.63
2023-04-16T09:18:53.687Z,100891.29
2023-04-16T09:21:23.785Z,100897.02
2023-04-16T09:23:53.639Z,100892.35
2023-04-16T09:26:21.980Z,100888.94
2023-04-16T09:28:51.549Z,100893.64
2023-04-16T09:31:20.037Z,100888.79
2023-04-16T09:34:05.460Z,100902.73
2023-04-16T09:36:33.935Z,100899.79
2023-04-16T09:39:02.572Z,100896.31
2023-04-16T09:41:32.440Z,100895.15
2023-04-16T09:44:02.199Z,100897.48
2023-04-16T09:46:31.862Z,100897.16
2023-04-16T09:49:06.126Z,100905.82
2023-04-16T09:51:38.437Z,100898.80
2023-04-16T09:54:06.826Z,100894.27
2023-04-16T09:56:43.298Z,100897.17
2023-04-16T09:59:18.142Z,100907.86
2023-04-16T10:02:14.396Z,100905.67
2023-04-16T10:04:52.979Z,100908.20
2023-04-16T10:07:23.312Z,100909.86
2023-04-16T10:09:52.921Z,100905.91
2023-04-16T10:12:21.705Z,100913.66
2023-04-16T10:14:50.464Z,100919.55
2023-04-16T10:17:18.960Z,100920.37
2023-04-16T10:19:47.178Z,100915.30
2023-04-16T10:22:16.094Z,100920.27
2023-04-16T10:24:44.175Z,100918.60
2023-04-16T10:27:12.384Z,100916.84
2023-04-16T10:29:40.750Z,100924.02
2023-04-16T10:32:08.825Z,100922.85
2023-04-16T10:34:37.265Z,100929.29
2023-04-16T10:37:05.320Z,100930.37
2023-04-16T10:39:37.333Z,100926.96
2023-04-16T10:42:10.291Z,100926.70
2023-04-16T10:44:38.367Z,100925.18
2023-04-16T10:47:13.321Z,100925.30
2023-04-16T10:49:41.650Z,100928.93
2023-04-16T10:52:17.128Z,100933.44
2023-04-16T10:54:45.868Z,100941.89
2023-04-16T10:57:18.028Z,100941.15
2023-04-16T10:59:46.217Z,100933.86
2023-04-16T11:02:17.755Z,100937.77
2023-04-16T11:04:48.970Z,100942.80
2023-04-16T11:07:18.423Z,100945.80
2023-04-16T11:09:59.941Z,100943.66
2023-04-16T11:12:41.551Z,100941.30
2023-04-16T11:15:13.225Z,100939.98
2023-04-16T11:17:43.151Z,100944.04
2023-04-16T11:20:24.392Z,100939.52
2023-04-16T11:22:56.684Z,100938.72
2023-04-16T11:25:34.163Z,100933.71
2023-04-16T11:28:02.658Z,100939.93
2023-04-16T11:30:33.893Z,100935.50
2023-04-16T11:33:06.083Z,100934.42
2023-04-16T11:35:34.951Z,100930.52
2023-04-16T11:38:02.982Z,100934.23
2023-04-16T11:40:33.998Z,100927.36
2023-04-16T11:43:04.499Z,100926.98
2023-04-16T11:45:32.495Z,100929.01
2023-04-16T11:48:00.703Z,100927.24
2023-04-16T11:50:29.358Z,100924.23
2023-04-16T11:53:03.033Z,100918.53
2023-04-16T11:55:31.470Z,100921.24
2023-04-16T11:58:11.721Z,100926.50
2023-04-16T12:00:39.961Z,100923.54
2023-04-16T12:03:08.204Z,100925.13
2023-04-16T12:05:40.269Z,100921.41
2023-04-16T12:08:09.888Z,100922.30
2023-04-16T12:10:52.891Z,100918.40
2023-04-16T12:13:20.931Z,100918.61
2023-04-16T12:15:49.680Z,100924.77
2023-04-16T12:18:19.370Z,100929.48
2023-04-16T12:20:47.625Z,100928.58
2023-04-16T12:23:28.807Z,100919.29
2023-04-16T12:25:59.774Z,100916.73
2023-04-16T12:28:32.754Z,100916.42
2023-04-16T12:31:01.879Z,100922.09
2023-04-16T12:33:30.218Z,100914.80
2023-04-16T12:35:58.335Z,100914.80
2023-04-16T12:38:27.080Z,100912.51
2023-04-16T12:40:57.709Z,100914.10
2023-04-16T12:43:26.371Z,100914.55
2023-04-16T12:45:55.633Z,100907.88
2023-04-16T12:48:23.892Z,100904.52
2023-04-16T12:50:53.965Z,100903.01
2023-04-16T12:53:22.511Z,100902.35
2023-04-16T12:55:51.034Z,100898.09
2023-04-16T12:58:19.843Z,100899.70
2023-04-16T13:00:48.082Z,100899.80
2023-04-16T13:03:16.398Z,100896.48
2023-04-16T13:05:44.765Z,100888.89
2023-04-16T13:08:13.248Z,100891.42
2023-04-16T13:10:41.868Z,100891.58
2023-04-16T13:13:10.050Z,100882.45
2023-04-16T13:15:38.370Z,100884.98
2023-04-16T13:18:06.448Z,100881.56
2023-04-16T13:20:34.509Z,100877.33
2023-04-16T13:23:05.071Z,100877.00
2023-04-16T13:25:34.223Z,100873.92
2023-04-16T13:28:02.257Z,100873.73
2023-04-16T13:30:31.949Z,100870.52
2023-04-16T13:33:00.011Z,100865.49
2023-04-16T13:35:29.517Z,100866.38
2023-04-16T13:37:58.064Z,100868.66
2023-04-16T13:40:26.038Z,100870.09
2023-04-16T13:42:54.176Z,100867.06
2023-04-16T13:45:22.206Z,100871.34
2023-04-16T13:47:50.844Z,100872.31
2023-04-16T13:50:19.059Z,100876.39
2023-04-16T13:52:47.128Z,100870.34
2023-04-16T13:55:18.172Z,100870.76
2023-04-16T13:57:50.228Z,100870.94
2023-04-16T14:00:18.904Z,100867.73
2023-04-16T14:02:48.793Z,100867.09
2023-04-16T14:05:17.527Z,100869.19
2023-04-16T14:07:46.484Z,100867.14
2023-04-16T14:10:14.610Z,100864.67
2023-04-16T14:12:44.617Z,100869.98
2023-04-16T14:15:14.990Z,100867.92
2023-04-16T14:17:44.216Z,100870.30
2023-04-16T14:20:13.054Z,100871.34
2023-04-16T14:22:42.551Z,100869.69
2023-04-16T14:25:10.757Z,100864.91
2023-04-16T14:27:41.331Z,100862.36
2023-04-16T14:30:10.118Z,100866.61
2023-04-16T14:32:38.166Z,100861.17
2023-04-16T14:35:06.987Z,100865.23
2023-04-16T14:37:36.842Z,100860.38
2023-04-16T14:40:08.773Z,100860.59
2023-04-16T14:42:37.802Z,100857.34
2023-04-16T14:45:07.040Z,100856.02
2023-04-16T14:47:35.405Z,100856.08
2023-04-16T14:50:03.943Z,100857.64
2023-04-16T14:52:32.492Z,100857.64
2023-04-16T14:55:00.829Z,100859.64
2023-04-16T14:57:28.983Z,100857.17
2023-04-16T14:59:56.930Z,100854.70
2023-04-16T15:02:25.226Z,100856.71
2023-04-16T15:04:53.316Z,100853.08
2023-04-16T15:07:22.179Z,100854.96
2023-04-16T15:09:51.111Z,100846.77
2023-04-16T15:12:19.271Z,100846.25
2023-04-16T15:14:47.500Z,100849.73
2023-04-16T15:17:15.699Z,100840.55
2023-04-16T15:19:43.737Z,100843.83
2023-04-16T15:22:12.586Z,100839.85
2023-04-16T15:24:40.492Z,100837.17
2023-04-16T15:27:11.613Z,100834.84
2023-04-16T15:29:40.056Z,100840.39
2023-04-16T15:32:08.079Z,100836.63
2023-04-16T15:34:36.345Z,100828.89
2023-04-16T15:37:04.391Z,100826.17
2023-04-16T15:39:32.495Z,100823.90
2023-04-16T15:42:03.495Z,100822.89
2023-04-16T15:44:33.143Z,100818.04
2023-04-16T15:47:01.281Z,100814.58
2023-04-16T15:49:29.641Z,100820.60
2023-04-16T15:51:58.060Z,100821.72
2023-04-16T15:54:26.502Z,100823.83
2023-04-16T15:56:54.602Z,100824.48
2023-04-16T15:59:22.734Z,100821.05
2023-04-16T16:01:51.084Z,100823.03
2023-04-16T16:04:19.328Z,100820.59
2023-04-16T16:06:47.403Z,100822.88
2023-04-16T16:09:15.914Z,100826.63
2023-04-16T16:11:44.327Z,100827.74
2023-04-16T16:14:15.305Z,100824.90
2023-04-16T16:16:45.554Z,100831.45
2023-04-16T16:19:14.035Z,100833.10
2023-04-16T16:21:42.413Z,100831.82
2023-04-16T16:24:11.102Z,100831.33
2023-04-16T16:26:39.445Z,100833.42
2023-04-16T16:29:07.688Z,100836.52
2023-04-16T16:31:36.081Z,100835.95
2023-04-16T16:34:04.503Z,100837.92
2023-04-16T16:36:36.711Z,100839.55
2023-04-16T16:39:05.504Z,100842.98
2023-04-16T16:41:37.736Z,100845.45
2023-04-16T16:44:05.947Z,100843.33
2023-04-16T16:46:34.314Z,100848.23
2023-04-16T16:49:05.181Z,100850.17
2023-04-16T16:51:33.991Z,100851.94
2023-04-16T16:54:02.107Z,100854.68
2023-04-16T16:56:30.372Z,100853.98
2023-04-16T16:58:58.525Z,100854.23
2023-04-16T17:01:26.863Z,100854.40
2023-04-16T17:03:56.242Z,100857.50
2023-04-16T17:06:24.523Z,100859.63
2023-04-16T17:08:52.748Z,100863.30
2023-04-16T17:11:21.042Z,100861.98
2023-04-16T17:13:49.401Z,100861.44
2023-04-16T17:16:17.737Z,100864.98
2023-04-16T17:18:46.068Z,100867.21
2023-04-16T17:21:16.398Z,100866.77
2023-04-16T17:23:44.934Z,100867.84
2023-04-16T17:26:12.988Z,100870.00
2023-04-16T17:28:42.795Z,100870.36
2023-04-16T17:31:11.646Z,100872.20
2023-04-16T17:33:39.828Z,100872.52
2023-04-16T17:36:08.206Z,100872.59
2023-04-16T17:38:36.581Z,100876.59
2023-04-16T17:41:04.768Z,100876.95
2023-04-16T17:43:33.419Z,100876.01
2023-04-16T17:46:01.557Z,100879.50
2023-04-16T17:48:30.197Z,100880.34
2023-04-16T17:50:58.316Z,100879.20
2023-04-16T17:53:26.442Z,100878.88
2023-04-16T17:55:56.698Z,100878.61
2023-04-16T17:58:26.555Z,100881.76
2023-04-16T18:00:54.863Z,100879.88
2023-04-16T18:03:23.658Z,100876.79
2023-04-16T18:05:51.967Z,100879.30
2023-04-16T18:08:24.489Z,100879.27
2023-04-16T18:10:52.525Z,100880.09
2023-04-16T18:13:25.767Z,100881.38
2023-04-16T18:15:53.822Z,100885.55
2023-04-16T18:18:21.930Z,100884.83
2023-04-16T18:20:50.173Z,100887.67
2023-04-16T18:23:18.818Z,100890.70
2023-04-16T18:25:48.839Z,100883.00
2023-04-16T18:28:17.899Z,100882.80
2023-04-16T18:30:46.118Z,100880.36
2023-04-16T18:35:45.270Z,100878.42
2023-04-16T18:38:15.880Z,100879.58
2023-04-16T18:40:43.948Z,100880.02
2023-04-16T18:43:12.605Z,100881.88
2023-04-16T18:45:41.732Z,100881.71
2023-04-16T18:48:09.814Z,100879.81
2023-04-16T18:50:38.647Z,100874.70
2023-04-16T18:53:06.767Z,100879.32
2023-04-16T18:55:35.439Z,100876.11
2023-04-16T18:58:03.552Z,100872.19
2023-04-16T19:00:31.906Z,100877.09
2023-04-16T19:03:00.306Z,100875.44
2023-04-16T19:05:28.414Z,100876.98
2023-04-16T19:07:56.824Z,100875.04
2023-04-16T19:10:24.988Z,100875.64
2023-04-16T19:12:53.201Z,100870.83
2023-04-16T19:15:21.389Z,100870.23
2023-04-16T19:17:49.761Z,100869.55
2023-04-16T19:20:18.036Z,100865.46
2023-04-16T19:22:46.476Z,100866.20
2023-04-16T19:25:14.569Z,100865.89
2023-04-16T19:27:42.660Z,100861.19
2023-04-16T19:30:11.713Z,100862.30
2023-04-16T19:32:40.762Z,100862.42
2023-04-16T19:35:09.502Z,100859.84
2023-04-16T19:37:37.545Z,100863.19
2023-04-16T19:40:06.559Z,100858.46
2023-04-16T19:42:34.703Z,100860.07
2023-04-16T19:45:03.444Z,100860.00
2023-04-16T19:47:31.581Z,100859.60
2023-04-16T19:49:59.787Z,100854.84
2023-04-16T19:52:27.826Z,100856.52
2023-04-16T19:54:55.928Z,100852.42
2023-04-16T19:57:24.103Z,100856.25
2023-04-16T19:59:54.078Z,100852.89
2023-04-16T20:02:23.301Z,100854.29
2023-04-16T20:04:53.196Z,100858.20
2023-04-16T20:07:21.419Z,100858.02
2023-04-16T20:09:49.539Z,100857.59
2023-04-16T20:12:18.648Z,100858.14
2023-04-16T20:14:47.284Z,100861.58
2023-04-16T20:17:18.859Z,100860.64
2023-04-16T20:19:47.583Z,100862.91
2023-04-16T20:22:18.336Z,100865.23
2023-04-16T20:24:49.128Z,100862.19
2023-04-16T20:27:19.513Z,100865.32
2023-04-16T20:29:47.878Z,100867.86
2023-04-16T20:32:15.835Z,100865.80
2023-04-16T20:34:44.338Z,100864.96
2023-04-16T20:37:12.356Z,100869.95
2023-04-16T20:39:42.104Z,100865.71
2023-04-16T20:42:10.396Z,100867.94
2023-04-16T20:44:41.520Z,100867.77
2023-04-16T20:47:14.922Z,100869.23
2023-04-16T20:49:46.621Z,100867.85
2023-04-16T20:52:15.774Z,100869.66
2023-04-16T20:54:44.223Z,100870.81
2023-04-16T20:57:12.287Z,100868.20
2023-04-16T20:59:40.594Z,100870.01
2023-04-16T21:02:08.717Z,100871.70
2023-04-16T21:04:38.492Z,100869.89
2023-04-16T21:07:06.861Z,100867.53
2023-04-16T21:09:35.108Z,100864.55
2023-04-16T21:12:03.297Z,100865.72
2023-04-16T21:14:31.500Z,100864.48
2023-04-16T21:16:59.534Z,100866.45
2023-04-16T21:19:27.550Z,100863.15
2023-04-16T21:21:56.201Z,100864.23
2023-04-16T21:24:24.298Z,100861.59
2023-04-16T21:26:52.368Z,100857.30
2023-04-16T21:29:20.599Z,100852.55
2023-04-16T21:31:48.775Z,100851.77
2023-04-16T21:34:16.870Z,100852.96
2023-04-16T21:36:45.088Z,100855.59
2023-04-16T21:39:14.192Z,100854.73
2023-04-16T21:41:42.301Z,100850.44
2023-04-16T21:44:10.319Z,100850.59
2023-04-16T21:46:38.597Z,100851.21
2023-04-16T21:49:06.702Z,100848.20
2023-04-16T21:51:35.420Z,100850.10
2023-04-16T21:54:03.568Z,100850.59
2023-04-16T21:56:32.492Z,100845.64
2023-04-16T21:59:00.579Z,100846.81
2023-04-16T22:01:28.795Z,100847.55
2023-04-16T22:03:57.165Z,100850.26
2023-04-16T22:06:27.249Z,100847.66
2023-04-16T22:08:58.869Z,100848.49
2023-04-16T22:11:26.955Z,100852.11
2023-04-16T22:13:58.031Z,100853.52
2023-04-16T22:16:26.672Z,100851.92
2023-04-16T22:18:56.630Z,100851.09
2023-04-16T22:21:24.991Z,100852.98
2023-04-16T22:23:53.050Z,100848.95
2023-04-16T22:26:21.096Z,100848.66
2023-04-16T22:28:49.390Z,100848.17
2023-04-16T22:31:17.485Z,100847.62
2023-04-16T22:33:45.853Z,100846.50
2023-04-16T22:36:13.854Z,100848.32
2023-04-16T22:38:42.046Z,100846.91
2023-04-16T22:41:10.236Z,100842.34
2023-04-16T22:43:38.612Z,100844.10
2023-04-16T22:46:07.981Z,100842.42
2023-04-16T22:48:38.288Z,100843.57
2023-04-16T22:51:07.765Z,100841.42
2023-04-16T22:53:36.929Z,100839.17
2023-04-16T22:56:06.143Z,100839.77
2023-04-16T22:58:34.800Z,100841.15
2023-04-16T23:01:03.212Z,100844.23
2023-04-16T23:03:31.932Z,100843.28
2023-04-16T23:05:59.910Z,100844.14
2023-04-16T23:08:28.418Z,100839.66
2023-04-16T23:10:56.430Z,100840.77
2023-04-16T23:13:24.552Z,100842.45
2023-04-16T23:15:52.872Z,100840.89
2023-04-16T23:18:22.948Z,100842.66
2023-04-16T23:20:54.052Z,100840.12
2023-04-16T23:23:22.124Z,100839.12
2023-04-16T23:25:53.674Z,100835.77
2023-04-16T23:28:24.193Z,100836.80
2023-04-16T23:30:53.082Z,100840.20
2023-04-16T23:33:21.538Z,100840.15
2023-04-16T23:35:49.610Z,100841.30
2023-04-16T23:38:17.976Z,100841.50
2023-04-16T23:40:46.058Z,100837.33
2023-04-16T23:43:14.262Z,100835.90
2023-04-16T23:45:42.387Z,100834.16
2023-04-16T23:48:10.616Z,100837.91
2023-04-16T23:50:38.681Z,100843.63
2023-04-16T23:53:06.694Z,100843.63
2023-04-16T23:55:34.820Z,100845.40
2023-04-16T23:58:02.978Z,100842.93
